MDT,Max TemperatureF,Mean TemperatureF,Min TemperatureF,Max Dew PointF,MeanDew PointF,Min DewpointF,Max Humidity, Mean Humidity, Min Humidity, Max Sea Level PressureIn, Mean Sea Level PressureIn, Min Sea Level PressureIn, Max VisibilityMiles, Mean VisibilityMiles, Min VisibilityMiles, Max Wind SpeedMPH, Mean Wind SpeedMPH, Max Gust SpeedMPH,PrecipitationIn, CloudCover, Events, WindDirDegrees
2013-10-1,89,75,60,33,24,14,34,20,6,29.82,29.76,29.71,10,10,10,23,10,31,0.00,0,,279
2013-10-2,88,75,62,39,33,25,31,23,15,29.85,29.78,29.71,10,10,10,18,6,23,0.00,0,,229
2013-10-3,86,73,60,41,35,26,49,31,12,29.80,29.73,29.66,10,10,10,22,8,28,0.00,2,,209
2013-10-4,85,74,62,45,37,31,52,33,14,29.81,29.75,29.69,10,10,10,26,10,35,0.00,0,,255
2013-10-5,75,65,54,35,20,15,28,21,14,30.08,29.99,29.82,10,10,10,22,11,28,0.00,0,,1
2013-10-6,76,61,45,30,23,18,34,24,14,30.17,30.10,30.04,10,10,10,15,7,16,0.00,0,,9
2013-10-7,80,63,46,30,28,24,49,31,13,30.16,30.05,29.95,10,10,10,13,4,17,0.00,2,,20
2013-10-8,86,67,48,37,33,27,48,32,16,29.94,29.84,29.73,10,10,10,17,6,23,0.00,3,,221
2013-10-9,85,73,60,40,35,31,31,24,17,29.83,29.74,29.68,10,10,10,18,8,25,0.00,2,,203
2013-10-10,85,72,58,45,37,31,48,31,14,29.90,29.71,29.62,10,10,10,36,17,44,0.00,1,,224
2013-10-11,77,64,51,38,36,33,54,39,23,29.89,29.83,29.78,10,10,10,21,6,28,0.00,0,,177
2013-10-12,81,64,47,40,35,29,61,41,20,29.98,29.90,29.85,10,10,10,17,6,21,0.00,1,,26
2013-10-13,81,70,59,54,45,40,52,41,29,29.97,29.90,29.85,10,10,10,14,5,17,0.00,5,,117
2013-10-14,77,72,66,47,46,45,48,41,33,29.91,29.85,29.80,10,10,10,23,10,28,0.00,8,,235
2013-10-15,71,64,57,54,47,37,63,47,31,30.04,29.86,29.80,10,10,10,18,8,23,0.00,6,,144
2013-10-16,76,66,56,50,38,18,77,46,14,30.13,29.93,29.86,10,10,10,21,6,25,0.00,4,,158
2013-10-17,76,61,46,38,27,21,61,37,13,30.00,29.90,29.82,10,10,10,15,5,23,0.00,0,,214
2013-10-18,77,60,42,32,24,17,49,30,11,30.01,29.88,29.81,10,10,10,17,6,21,0.00,0,,83
2013-10-19,73,57,41,31,29,27,57,38,19,30.14,30.03,29.94,10,10,10,9,2,13,0.00,0,,82
2013-10-20,78,58,38,33,23,10,59,34,9,29.94,29.85,29.76,10,10,10,18,6,26,0.00,0,,279
2013-10-21,72,59,46,35,28,18,43,32,20,30.06,29.95,29.78,10,10,10,13,6,17,0.00,0,,79
2013-10-22,75,61,46,38,34,30,60,40,20,30.16,30.08,30.00,10,10,10,9,5,15,0.00,0,,25
2013-10-23,79,61,42,34,32,29,53,36,19,30.10,30.01,29.92,10,10,10,12,5,13,0.00,1,,12
2013-10-24,82,68,53,39,34,29,45,33,21,30.06,29.96,29.87,10,10,10,20,8,26,0.00,3,,54
2013-10-25,79,68,57,47,39,34,67,45,22,30.05,29.97,29.90,10,10,10,16,7,21,0.00,3,,83
2013-10-26,77,66,54,45,39,29,71,45,18,30.11,30.04,29.98,10,10,10,17,10,25,0.00,1,,8
2013-10-27,77,62,47,40,38,36,61,44,27,30.08,29.96,29.80,10,10,10,10,4,12,0.00,2,,31
2013-10-28,80,65,49,42,31,19,66,39,11,29.88,29.81,29.76,10,10,10,24,9,28,0.00,4,,201
2013-10-29,75,70,64,32,27,22,28,22,15,29.90,29.82,29.77,10,10,10,17,8,22,0.00,8,,197
2013-10-30,71,65,59,44,40,26,51,38,25,29.92,29.81,29.71,10,10,10,30,14,41,T,5,Rain-Thunderstorm,235
2013-10-31,69,57,45,24,16,6,38,24,9,30.00,29.90,29.84,10,10,10,28,12,37,0.00,1,,299